sensor_id;sensor_type;location;lat;lon;timestamp;P1;durP1;ratioP1;P2;durP2;ratioP2
980;SDS011;479;53.514;9.994;2024-02-28T00:02:02;15.35;;;10.80;;
980;SDS011;479;53.514;9.994;2024-02-28T00:04:29;17.73;;;12.10;;
980;SDS011;479;53.514;9.994;2024-02-28T00:06:56;19.98;;;11.60;;
980;SDS011;479;53.514;9.994;2024-02-28T00:09:23;16.27;;;11.88;;
980;SDS011;479;53.514;9.994;2024-02-28T00:11:50;17.48;;;11.95;;
980;SDS011;479;53.514;9.994;2024-02-28T00:14:18;16.60;;;11.90;;
980;SDS011;479;53.514;9.994;2024-02-28T00:16:46;16.90;;;11.60;;
980;SDS011;479;53.514;9.994;2024-02-28T00:19:13;23.35;;;12.23;;
980;SDS011;479;53.514;9.994;2024-02-28T00:21:40;19.88;;;12.85;;
980;SDS011;479;53.514;9.994;2024-02-28T00:24:07;22.50;;;13.93;;
980;SDS011;479;53.514;9.994;2024-02-28T00:26:34;21.25;;;12.65;;
980;SDS011;479;53.514;9.994;2024-02-28T00:29:01;15.57;;;10.82;;
980;SDS011;479;53.514;9.994;2024-02-28T00:31:30;17.40;;;11.20;;
980;SDS011;479;53.514;9.994;2024-02-28T00:33:57;15.73;;;11.05;;
980;SDS011;479;53.514;9.994;2024-02-28T00:36:24;12.60;;;9.80;;
980;SDS011;479;53.514;9.994;2024-02-28T00:38:52;15.25;;;10.30;;
980;SDS011;479;53.514;9.994;2024-02-28T00:41:21;19.80;;;12.18;;
980;SDS011;479;53.514;9.994;2024-02-28T00:43:51;17.35;;;12.07;;
980;SDS011;479;53.514;9.994;2024-02-28T00:46:19;18.88;;;12.27;;
980;SDS011;479;53.514;9.994;2024-02-28T00:48:47;15.63;;;11.50;;
980;SDS011;479;53.514;9.994;2024-02-28T00:51:16;18.65;;;12.63;;
980;SDS011;479;53.514;9.994;2024-02-28T00:53:45;17.92;;;10.95;;
980;SDS011;479;53.514;9.994;2024-02-28T00:56:13;15.93;;;11.60;;
980;SDS011;479;53.514;9.994;2024-02-28T00:58:40;19.02;;;11.77;;
980;SDS011;479;53.514;9.994;2024-02-28T01:01:07;17.38;;;10.82;;
980;SDS011;479;53.514;9.994;2024-02-28T01:03:36;19.50;;;12.52;;
980;SDS011;479;53.514;9.994;2024-02-28T01:06:05;16.52;;;11.20;;
980;SDS011;479;53.514;9.994;2024-02-28T01:08:32;14.70;;;9.77;;
980;SDS011;479;53.514;9.994;2024-02-28T01:10:59;23.25;;;12.32;;
980;SDS011;479;53.514;9.994;2024-02-28T01:13:27;28.45;;;15.63;;
980;SDS011;479;53.514;9.994;2024-02-28T01:15:54;21.60;;;12.07;;
980;SDS011;479;53.514;9.994;2024-02-28T01:18:21;20.50;;;12.05;;
980;SDS011;479;53.514;9.994;2024-02-28T01:20:49;25.00;;;12.80;;
980;SDS011;479;53.514;9.994;2024-02-28T01:23:20;18.52;;;11.52;;
980;SDS011;479;53.514;9.994;2024-02-28T01:25:48;22.75;;;12.73;;
980;SDS011;479;53.514;9.994;2024-02-28T01:28:15;22.40;;;11.80;;
980;SDS011;479;53.514;9.994;2024-02-28T01:30:42;21.20;;;12.25;;
980;SDS011;479;53.514;9.994;2024-02-28T01:33:09;21.40;;;13.63;;
980;SDS011;479;53.514;9.994;2024-02-28T01:35:37;18.77;;;11.25;;
980;SDS011;479;53.514;9.994;2024-02-28T01:38:04;17.02;;;9.25;;
980;SDS011;479;53.514;9.994;2024-02-28T01:40:33;20.58;;;12.73;;
980;SDS011;479;53.514;9.994;2024-02-28T01:43:03;19.20;;;10.70;;
980;SDS011;479;53.514;9.994;2024-02-28T01:45:30;21.50;;;11.13;;
980;SDS011;479;53.514;9.994;2024-02-28T01:47:57;17.77;;;11.25;;
980;SDS011;479;53.514;9.994;2024-02-28T01:50:26;18.13;;;11.02;;
980;SDS011;479;53.514;9.994;2024-02-28T01:52:53;16.30;;;10.90;;
980;SDS011;479;53.514;9.994;2024-02-28T01:55:21;19.13;;;9.88;;
980;SDS011;479;53.514;9.994;2024-02-28T01:57:51;13.80;;;9.98;;
980;SDS011;479;53.514;9.994;2024-02-28T02:00:19;20.27;;;11.85;;
980;SDS011;479;53.514;9.994;2024-02-28T02:02:47;20.77;;;11.10;;
980;SDS011;479;53.514;9.994;2024-02-28T02:05:14;19.02;;;10.88;;
980;SDS011;479;53.514;9.994;2024-02-28T02:07:46;18.95;;;11.60;;
980;SDS011;479;53.514;9.994;2024-02-28T02:10:15;24.70;;;13.40;;
980;SDS011;479;53.514;9.994;2024-02-28T02:12:42;17.02;;;10.38;;
980;SDS011;479;53.514;9.994;2024-02-28T02:15:10;20.70;;;10.68;;
980;SDS011;479;53.514;9.994;2024-02-28T02:17:37;13.52;;;8.63;;
980;SDS011;479;53.514;9.994;2024-02-28T02:20:05;16.70;;;8.48;;
980;SDS011;479;53.514;9.994;2024-02-28T02:22:37;19.75;;;11.55;;
980;SDS011;479;53.514;9.994;2024-02-28T02:25:04;22.15;;;12.15;;
980;SDS011;479;53.514;9.994;2024-02-28T02:27:32;19.63;;;12.27;;
980;SDS011;479;53.514;9.994;2024-02-28T02:29:59;18.02;;;10.60;;
980;SDS011;479;53.514;9.994;2024-02-28T02:32:25;17.60;;;11.40;;
980;SDS011;479;53.514;9.994;2024-02-28T02:34:52;17.23;;;11.20;;
980;SDS011;479;53.514;9.994;2024-02-28T02:37:19;22.65;;;13.00;;
980;SDS011;479;53.514;9.994;2024-02-28T02:39:47;19.33;;;11.35;;
980;SDS011;479;53.514;9.994;2024-02-28T02:42:14;20.10;;;10.88;;
980;SDS011;479;53.514;9.994;2024-02-28T02:44:41;17.05;;;9.35;;
980;SDS011;479;53.514;9.994;2024-02-28T02:47:08;17.30;;;10.00;;
980;SDS011;479;53.514;9.994;2024-02-28T02:49:35;20.52;;;12.32;;
980;SDS011;479;53.514;9.994;2024-02-28T02:52:02;19.20;;;10.10;;
980;SDS011;479;53.514;9.994;2024-02-28T02:54:29;18.85;;;10.45;;
980;SDS011;479;53.514;9.994;2024-02-28T02:56:57;19.55;;;11.40;;
980;SDS011;479;53.514;9.994;2024-02-28T02:59:24;20.48;;;9.70;;
980;SDS011;479;53.514;9.994;2024-02-28T03:01:52;15.65;;;9.70;;
980;SDS011;479;53.514;9.994;2024-02-28T03:04:19;16.80;;;10.10;;
980;SDS011;479;53.514;9.994;2024-02-28T03:06:45;18.92;;;11.00;;
980;SDS011;479;53.514;9.994;2024-02-28T03:09:12;20.85;;;11.65;;
980;SDS011;479;53.514;9.994;2024-02-28T03:11:39;17.60;;;11.40;;
980;SDS011;479;53.514;9.994;2024-02-28T03:14:07;21.40;;;11.15;;
980;SDS011;479;53.514;9.994;2024-02-28T03:16:34;21.15;;;10.68;;
980;SDS011;479;53.514;9.994;2024-02-28T03:19:02;21.33;;;11.55;;
980;SDS011;479;53.514;9.994;2024-02-28T03:21:30;18.40;;;11.05;;
980;SDS011;479;53.514;9.994;2024-02-28T03:23:57;17.85;;;10.35;;
980;SDS011;479;53.514;9.994;2024-02-28T03:26:24;15.90;;;10.43;;
980;SDS011;479;53.514;9.994;2024-02-28T03:28:50;16.40;;;9.80;;
980;SDS011;479;53.514;9.994;2024-02-28T03:31:19;17.63;;;10.02;;
980;SDS011;479;53.514;9.994;2024-02-28T03:33:46;19.95;;;10.88;;
980;SDS011;479;53.514;9.994;2024-02-28T03:36:13;12.98;;;7.53;;
980;SDS011;479;53.514;9.994;2024-02-28T03:38:40;18.83;;;9.90;;
980;SDS011;479;53.514;9.994;2024-02-28T03:41:07;19.15;;;10.63;;
980;SDS011;479;53.514;9.994;2024-02-28T03:43:34;18.83;;;10.90;;
980;SDS011;479;53.514;9.994;2024-02-28T03:46:01;31.63;;;11.40;;
980;SDS011;479;53.514;9.994;2024-02-28T03:48:29;18.92;;;10.65;;
980;SDS011;479;53.514;9.994;2024-02-28T03:50:56;16.65;;;9.25;;
980;SDS011;479;53.514;9.994;2024-02-28T03:53:23;16.45;;;10.82;;
980;SDS011;479;53.514;9.994;2024-02-28T03:55:50;20.15;;;10.68;;
980;SDS011;479;53.514;9.994;2024-02-28T03:58:17;16.55;;;9.93;;
980;SDS011;479;53.514;9.994;2024-02-28T04:00:43;21.38;;;9.32;;
980;SDS011;479;53.514;9.994;2024-02-28T04:03:11;20.77;;;11.10;;
980;SDS011;479;53.514;9.994;2024-02-28T04:05:40;19.38;;;10.93;;
980;SDS011;479;53.514;9.994;2024-02-28T04:08:07;20.08;;;9.13;;
980;SDS011;479;53.514;9.994;2024-02-28T04:10:34;18.55;;;10.18;;
980;SDS011;479;53.514;9.994;2024-02-28T04:13:01;19.02;;;10.32;;
980;SDS011;479;53.514;9.994;2024-02-28T04:15:29;16.65;;;11.15;;
980;SDS011;479;53.514;9.994;2024-02-28T04:17:56;15.48;;;10.02;;
980;SDS011;479;53.514;9.994;2024-02-28T04:20:23;19.63;;;9.60;;
980;SDS011;479;53.514;9.994;2024-02-28T04:22:51;22.35;;;11.70;;
980;SDS011;479;53.514;9.994;2024-02-28T04:25:18;20.45;;;10.68;;
980;SDS011;479;53.514;9.994;2024-02-28T04:27:45;17.15;;;10.98;;
980;SDS011;479;53.514;9.994;2024-02-28T04:30:12;18.52;;;10.40;;
980;SDS011;479;53.514;9.994;2024-02-28T04:32:39;17.65;;;9.70;;
980;SDS011;479;53.514;9.994;2024-02-28T04:35:06;19.50;;;12.25;;
980;SDS011;479;53.514;9.994;2024-02-28T04:37:33;19.13;;;9.95;;
980;SDS011;479;53.514;9.994;2024-02-28T04:40:03;13.82;;;9.20;;
980;SDS011;479;53.514;9.994;2024-02-28T04:42:31;17.58;;;10.60;;
980;SDS011;479;53.514;9.994;2024-02-28T04:44:58;16.48;;;9.35;;
980;SDS011;479;53.514;9.994;2024-02-28T04:47:25;20.70;;;10.65;;
980;SDS011;479;53.514;9.994;2024-02-28T04:49:52;17.52;;;10.55;;
980;SDS011;479;53.514;9.994;2024-02-28T04:52:19;20.10;;;10.25;;
980;SDS011;479;53.514;9.994;2024-02-28T04:54:46;17.58;;;10.93;;
980;SDS011;479;53.514;9.994;2024-02-28T04:57:14;20.98;;;11.80;;
980;SDS011;479;53.514;9.994;2024-02-28T04:59:41;19.48;;;11.30;;
980;SDS011;479;53.514;9.994;2024-02-28T05:02:10;21.95;;;11.20;;
980;SDS011;479;53.514;9.994;2024-02-28T05:04:37;18.15;;;10.52;;
980;SDS011;479;53.514;9.994;2024-02-28T05:07:04;15.93;;;9.93;;
980;SDS011;479;53.514;9.994;2024-02-28T05:09:32;18.23;;;10.07;;
980;SDS011;479;53.514;9.994;2024-02-28T05:11:59;18.35;;;11.05;;
980;SDS011;479;53.514;9.994;2024-02-28T05:14:27;16.75;;;9.85;;
980;SDS011;479;53.514;9.994;2024-02-28T05:16:54;15.45;;;9.85;;
980;SDS011;479;53.514;9.994;2024-02-28T05:19:21;19.90;;;10.90;;
980;SDS011;479;53.514;9.994;2024-02-28T05:21:47;20.20;;;11.13;;
980;SDS011;479;53.514;9.994;2024-02-28T05:24:14;19.75;;;12.15;;
980;SDS011;479;53.514;9.994;2024-02-28T05:26:41;17.25;;;9.25;;
980;SDS011;479;53.514;9.994;2024-02-28T05:29:08;22.33;;;11.57;;
980;SDS011;479;53.514;9.994;2024-02-28T05:31:36;17.63;;;11.57;;
980;SDS011;479;53.514;9.994;2024-02-28T05:34:03;21.15;;;11.95;;
980;SDS011;479;53.514;9.994;2024-02-28T05:36:30;17.02;;;9.90;;
980;SDS011;479;53.514;9.994;2024-02-28T05:38:58;18.30;;;9.82;;
980;SDS011;479;53.514;9.994;2024-02-28T05:41:26;16.33;;;9.88;;
980;SDS011;479;53.514;9.994;2024-02-28T05:43:53;18.38;;;10.85;;
980;SDS011;479;53.514;9.994;2024-02-28T05:46:20;18.10;;;8.77;;
980;SDS011;479;53.514;9.994;2024-02-28T05:48:49;19.48;;;10.18;;
980;SDS011;479;53.514;9.994;2024-02-28T05:51:16;16.70;;;10.43;;
980;SDS011;479;53.514;9.994;2024-02-28T05:53:43;21.02;;;9.10;;
980;SDS011;479;53.514;9.994;2024-02-28T05:56:09;15.35;;;8.68;;
980;SDS011;479;53.514;9.994;2024-02-28T05:58:39;15.68;;;9.60;;
980;SDS011;479;53.514;9.994;2024-02-28T06:01:06;17.75;;;9.80;;
980;SDS011;479;53.514;9.994;2024-02-28T06:03:33;11.15;;;7.15;;
980;SDS011;479;53.514;9.994;2024-02-28T06:06:02;15.05;;;9.40;;
980;SDS011;479;53.514;9.994;2024-02-28T06:08:31;14.10;;;8.13;;
980;SDS011;479;53.514;9.994;2024-02-28T06:10:58;10.32;;;8.35;;
980;SDS011;479;53.514;9.994;2024-02-28T06:13:25;14.30;;;9.65;;
980;SDS011;479;53.514;9.994;2024-02-28T06:15:53;12.68;;;7.90;;
980;SDS011;479;53.514;9.994;2024-02-28T06:18:20;13.60;;;8.70;;
980;SDS011;479;53.514;9.994;2024-02-28T06:20:48;14.88;;;8.57;;
980;SDS011;479;53.514;9.994;2024-02-28T06:23:16;11.23;;;8.80;;
980;SDS011;479;53.514;9.994;2024-02-28T06:25:43;13.15;;;8.70;;
980;SDS011;479;53.514;9.994;2024-02-28T06:28:10;13.20;;;8.52;;
980;SDS011;479;53.514;9.994;2024-02-28T06:30:37;11.82;;;7.05;;
980;SDS011;479;53.514;9.994;2024-02-28T06:33:04;17.13;;;8.07;;
980;SDS011;479;53.514;9.994;2024-02-28T06:35:31;12.05;;;7.30;;
980;SDS011;479;53.514;9.994;2024-02-28T06:37:58;16.92;;;8.75;;
980;SDS011;479;53.514;9.994;2024-02-28T06:40:26;8.15;;;6.35;;
980;SDS011;479;53.514;9.994;2024-02-28T06:42:53;15.07;;;8.43;;
980;SDS011;479;53.514;9.994;2024-02-28T06:45:20;17.13;;;9.38;;
980;SDS011;479;53.514;9.994;2024-02-28T06:47:47;13.35;;;7.43;;
980;SDS011;479;53.514;9.994;2024-02-28T06:50:14;12.57;;;7.85;;
980;SDS011;479;53.514;9.994;2024-02-28T06:52:41;11.70;;;7.72;;
980;SDS011;479;53.514;9.994;2024-02-28T06:55:09;17.17;;;8.55;;
980;SDS011;479;53.514;9.994;2024-02-28T06:57:37;11.63;;;8.23;;
980;SDS011;479;53.514;9.994;2024-02-28T07:00:07;14.27;;;8.55;;
980;SDS011;479;53.514;9.994;2024-02-28T07:02:35;12.18;;;7.68;;
980;SDS011;479;53.514;9.994;2024-02-28T07:05:13;9.68;;;7.28;;
980;SDS011;479;53.514;9.994;2024-02-28T07:07:40;10.85;;;7.03;;
980;SDS011;479;53.514;9.994;2024-02-28T07:10:07;10.32;;;6.70;;
980;SDS011;479;53.514;9.994;2024-02-28T07:12:34;15.27;;;8.30;;
980;SDS011;479;53.514;9.994;2024-02-28T07:15:05;13.85;;;9.35;;
980;SDS011;479;53.514;9.994;2024-02-28T07:17:33;11.32;;;7.25;;
980;SDS011;479;53.514;9.994;2024-02-28T07:19:59;14.82;;;7.90;;
980;SDS011;479;53.514;9.994;2024-02-28T07:22:25;13.87;;;8.47;;
980;SDS011;479;53.514;9.994;2024-02-28T07:24:52;11.75;;;8.20;;
980;SDS011;479;53.514;9.994;2024-02-28T07:27:21;16.40;;;8.50;;
980;SDS011;479;53.514;9.994;2024-02-28T07:29:48;11.13;;;6.97;;
980;SDS011;479;53.514;9.994;2024-02-28T07:32:16;14.57;;;9.43;;
980;SDS011;479;53.514;9.994;2024-02-28T07:34:43;13.05;;;8.65;;
980;SDS011;479;53.514;9.994;2024-02-28T07:37:10;10.95;;;7.95;;
980;SDS011;479;53.514;9.994;2024-02-28T07:39:37;11.85;;;8.05;;
980;SDS011;479;53.514;9.994;2024-02-28T07:42:04;14.38;;;9.80;;
980;SDS011;479;53.514;9.994;2024-02-28T07:44:31;11.85;;;7.70;;
980;SDS011;479;53.514;9.994;2024-02-28T07:46:58;16.10;;;8.65;;
980;SDS011;479;53.514;9.994;2024-02-28T07:49:26;10.82;;;7.35;;
980;SDS011;479;53.514;9.994;2024-02-28T07:51:53;14.65;;;9.10;;
980;SDS011;479;53.514;9.994;2024-02-28T07:54:20;19.23;;;10.05;;
980;SDS011;479;53.514;9.994;2024-02-28T07:56:48;15.70;;;9.50;;
980;SDS011;479;53.514;9.994;2024-02-28T07:59:15;16.97;;;11.00;;
980;SDS011;479;53.514;9.994;2024-02-28T08:01:42;14.17;;;10.17;;
980;SDS011;479;53.514;9.994;2024-02-28T08:04:09;16.07;;;10.10;;
980;SDS011;479;53.514;9.994;2024-02-28T08:06:39;17.10;;;10.40;;
980;SDS011;479;53.514;9.994;2024-02-28T08:09:06;19.53;;;11.43;;
980;SDS011;479;53.514;9.994;2024-02-28T08:11:33;14.00;;;9.30;;
980;SDS011;479;53.514;9.994;2024-02-28T08:14:00;16.20;;;10.48;;
980;SDS011;479;53.514;9.994;2024-02-28T08:16:28;20.70;;;11.50;;
980;SDS011;479;53.514;9.994;2024-02-28T08:18:55;20.25;;;9.80;;
980;SDS011;479;53.514;9.994;2024-02-28T08:21:22;16.60;;;9.65;;
980;SDS011;479;53.514;9.994;2024-02-28T08:23:50;16.48;;;11.23;;
980;SDS011;479;53.514;9.994;2024-02-28T08:26:17;19.37;;;11.57;;
980;SDS011;479;53.514;9.994;2024-02-28T08:28:44;24.83;;;12.10;;
980;SDS011;479;53.514;9.994;2024-02-28T08:31:11;16.33;;;10.07;;
980;SDS011;479;53.514;9.994;2024-02-28T08:33:38;21.13;;;12.48;;
980;SDS011;479;53.514;9.994;2024-02-28T08:36:05;26.20;;;11.13;;
980;SDS011;479;53.514;9.994;2024-02-28T08:38:32;17.70;;;11.93;;
980;SDS011;479;53.514;9.994;2024-02-28T08:41:01;19.20;;;11.83;;
980;SDS011;479;53.514;9.994;2024-02-28T08:43:28;22.70;;;13.40;;
980;SDS011;479;53.514;9.994;2024-02-28T08:45:55;24.40;;;13.93;;
980;SDS011;479;53.514;9.994;2024-02-28T08:48:22;23.42;;;15.75;;
980;SDS011;479;53.514;9.994;2024-02-28T08:50:49;24.35;;;17.00;;
980;SDS011;479;53.514;9.994;2024-02-28T08:53:16;22.30;;;15.03;;
980;SDS011;479;53.514;9.994;2024-02-28T08:55:43;20.67;;;13.90;;
980;SDS011;479;53.514;9.994;2024-02-28T08:58:11;23.70;;;14.30;;
980;SDS011;479;53.514;9.994;2024-02-28T09:00:38;44.83;;;28.47;;
980;SDS011;479;53.514;9.994;2024-02-28T09:03:05;22.15;;;15.60;;
980;SDS011;479;53.514;9.994;2024-02-28T09:05:32;22.48;;;15.50;;
980;SDS011;479;53.514;9.994;2024-02-28T09:07:59;24.13;;;18.00;;
980;SDS011;479;53.514;9.994;2024-02-28T09:10:26;24.80;;;16.77;;
980;SDS011;479;53.514;9.994;2024-02-28T09:12:54;22.47;;;15.40;;
980;SDS011;479;53.514;9.994;2024-02-28T09:15:22;22.10;;;15.13;;
980;SDS011;479;53.514;9.994;2024-02-28T09:17:50;20.70;;;14.30;;
980;SDS011;479;53.514;9.994;2024-02-28T09:20:17;24.90;;;13.90;;
980;SDS011;479;53.514;9.994;2024-02-28T09:22:44;17.43;;;13.17;;
980;SDS011;479;53.514;9.994;2024-02-28T09:25:11;22.80;;;14.20;;
980;SDS011;479;53.514;9.994;2024-02-28T09:27:38;20.30;;;13.90;;
980;SDS011;479;53.514;9.994;2024-02-28T09:30:05;18.73;;;12.20;;
980;SDS011;479;53.514;9.994;2024-02-28T09:32:34;21.63;;;13.97;;
980;SDS011;479;53.514;9.994;2024-02-28T09:35:02;23.13;;;13.33;;
980;SDS011;479;53.514;9.994;2024-02-28T09:37:29;22.10;;;13.27;;
980;SDS011;479;53.514;9.994;2024-02-28T09:39:56;23.57;;;15.13;;
980;SDS011;479;53.514;9.994;2024-02-28T09:42:23;20.43;;;13.17;;
980;SDS011;479;53.514;9.994;2024-02-28T09:44:50;17.47;;;10.67;;
980;SDS011;479;53.514;9.994;2024-02-28T09:47:18;19.40;;;13.23;;
980;SDS011;479;53.514;9.994;2024-02-28T09:49:46;18.23;;;12.67;;
980;SDS011;479;53.514;9.994;2024-02-28T09:52:18;17.17;;;11.80;;
980;SDS011;479;53.514;9.994;2024-02-28T09:54:45;26.10;;;13.60;;
980;SDS011;479;53.514;9.994;2024-02-28T09:57:12;24.40;;;14.50;;
980;SDS011;479;53.514;9.994;2024-02-28T09:59:40;14.80;;;10.80;;
980;SDS011;479;53.514;9.994;2024-02-28T10:02:09;16.83;;;11.60;;
980;SDS011;479;53.514;9.994;2024-02-28T10:04:37;19.33;;;13.80;;
980;SDS011;479;53.514;9.994;2024-02-28T10:07:12;19.17;;;11.90;;
980;SDS011;479;53.514;9.994;2024-02-28T10:09:39;16.77;;;11.57;;
980;SDS011;479;53.514;9.994;2024-02-28T10:12:06;13.10;;;11.00;;
980;SDS011;479;53.514;9.994;2024-02-28T10:14:34;17.53;;;12.50;;
980;SDS011;479;53.514;9.994;2024-02-28T10:17:01;23.17;;;14.57;;
980;SDS011;479;53.514;9.994;2024-02-28T10:19:28;18.83;;;15.13;;
980;SDS011;479;53.514;9.994;2024-02-28T10:21:55;16.87;;;12.87;;
980;SDS011;479;53.514;9.994;2024-02-28T10:24:25;16.30;;;11.63;;
980;SDS011;479;53.514;9.994;2024-02-28T10:26:52;18.07;;;12.57;;
980;SDS011;479;53.514;9.994;2024-02-28T10:29:21;21.13;;;13.80;;
980;SDS011;479;53.514;9.994;2024-02-28T10:31:49;15.37;;;12.13;;
980;SDS011;479;53.514;9.994;2024-02-28T10:34:16;14.47;;;10.77;;
980;SDS011;479;53.514;9.994;2024-02-28T10:36:43;26.03;;;13.70;;
980;SDS011;479;53.514;9.994;2024-02-28T10:39:10;21.30;;;13.63;;
980;SDS011;479;53.514;9.994;2024-02-28T10:41:39;19.33;;;13.27;;
980;SDS011;479;53.514;9.994;2024-02-28T10:44:07;15.27;;;11.63;;
980;SDS011;479;53.514;9.994;2024-02-28T10:46:35;12.87;;;9.67;;
980;SDS011;479;53.514;9.994;2024-02-28T10:49:04;19.03;;;10.10;;
980;SDS011;479;53.514;9.994;2024-02-28T10:51:33;17.27;;;11.70;;
980;SDS011;479;53.514;9.994;2024-02-28T10:54:08;16.52;;;11.35;;
980;SDS011;479;53.514;9.994;2024-02-28T10:56:42;35.03;;;18.53;;
980;SDS011;479;53.514;9.994;2024-02-28T10:59:13;18.37;;;11.33;;
980;SDS011;479;53.514;9.994;2024-02-28T11:01:41;15.57;;;9.87;;
980;SDS011;479;53.514;9.994;2024-02-28T11:04:09;14.30;;;11.20;;
980;SDS011;479;53.514;9.994;2024-02-28T11:06:46;16.53;;;11.10;;
980;SDS011;479;53.514;9.994;2024-02-28T11:09:18;15.40;;;11.37;;
980;SDS011;479;53.514;9.994;2024-02-28T11:11:49;16.00;;;10.27;;
980;SDS011;479;53.514;9.994;2024-02-28T11:14:16;15.27;;;9.90;;
980;SDS011;479;53.514;9.994;2024-02-28T11:16:47;14.60;;;9.13;;
980;SDS011;479;53.514;9.994;2024-02-28T11:19:25;15.83;;;12.13;;
980;SDS011;479;53.514;9.994;2024-02-28T11:21:54;11.63;;;7.90;;
980;SDS011;479;53.514;9.994;2024-02-28T11:24:24;11.83;;;8.37;;
980;SDS011;479;53.514;9.994;2024-02-28T11:26:57;14.10;;;9.10;;
980;SDS011;479;53.514;9.994;2024-02-28T11:29:26;15.98;;;10.20;;
980;SDS011;479;53.514;9.994;2024-02-28T11:31:54;14.53;;;10.17;;
980;SDS011;479;53.514;9.994;2024-02-28T11:34:22;14.37;;;9.17;;
980;SDS011;479;53.514;9.994;2024-02-28T11:36:49;17.47;;;8.90;;
980;SDS011;479;53.514;9.994;2024-02-28T11:39:16;12.80;;;8.80;;
980;SDS011;479;53.514;9.994;2024-02-28T11:41:46;16.90;;;9.87;;
980;SDS011;479;53.514;9.994;2024-02-28T11:44:15;14.33;;;10.03;;
980;SDS011;479;53.514;9.994;2024-02-28T11:46:43;19.37;;;12.80;;
980;SDS011;479;53.514;9.994;2024-02-28T11:49:11;15.83;;;12.20;;
980;SDS011;479;53.514;9.994;2024-02-28T11:51:39;25.80;;;15.13;;
980;SDS011;479;53.514;9.994;2024-02-28T11:54:07;20.27;;;13.27;;
980;SDS011;479;53.514;9.994;2024-02-28T11:56:34;21.70;;;13.13;;
980;SDS011;479;53.514;9.994;2024-02-28T11:59:01;13.80;;;9.60;;
980;SDS011;479;53.514;9.994;2024-02-28T12:01:34;22.50;;;12.70;;
980;SDS011;479;53.514;9.994;2024-02-28T12:04:02;26.93;;;15.10;;
980;SDS011;479;53.514;9.994;2024-02-28T12:06:31;17.33;;;10.83;;
980;SDS011;479;53.514;9.994;2024-02-28T12:08:58;17.17;;;11.03;;
980;SDS011;479;53.514;9.994;2024-02-28T12:11:29;18.50;;;10.80;;
980;SDS011;479;53.514;9.994;2024-02-28T12:13:57;34.17;;;24.30;;
980;SDS011;479;53.514;9.994;2024-02-28T12:16:25;20.10;;;11.83;;
980;SDS011;479;53.514;9.994;2024-02-28T12:18:54;18.03;;;10.90;;
980;SDS011;479;53.514;9.994;2024-02-28T12:21:21;26.27;;;13.47;;
980;SDS011;479;53.514;9.994;2024-02-28T12:23:49;44.43;;;27.03;;
980;SDS011;479;53.514;9.994;2024-02-28T12:26:16;26.60;;;17.20;;
980;SDS011;479;53.514;9.994;2024-02-28T12:28:44;21.37;;;14.37;;
980;SDS011;479;53.514;9.994;2024-02-28T12:31:10;32.00;;;19.90;;
980;SDS011;479;53.514;9.994;2024-02-28T12:33:38;31.13;;;19.30;;
980;SDS011;479;53.514;9.994;2024-02-28T12:36:07;18.93;;;12.70;;
980;SDS011;479;53.514;9.994;2024-02-28T12:38:33;17.40;;;11.70;;
980;SDS011;479;53.514;9.994;2024-02-28T12:41:01;31.50;;;16.90;;
980;SDS011;479;53.514;9.994;2024-02-28T12:43:29;17.43;;;12.80;;
980;SDS011;479;53.514;9.994;2024-02-28T12:45:57;14.03;;;11.20;;
980;SDS011;479;53.514;9.994;2024-02-28T12:48:24;26.40;;;14.33;;
980;SDS011;479;53.514;9.994;2024-02-28T12:50:50;19.30;;;12.17;;
980;SDS011;479;53.514;9.994;2024-02-28T12:53:19;40.67;;;25.50;;
980;SDS011;479;53.514;9.994;2024-02-28T12:55:46;17.73;;;11.90;;
980;SDS011;479;53.514;9.994;2024-02-28T12:58:12;16.60;;;10.87;;
980;SDS011;479;53.514;9.994;2024-02-28T13:00:39;18.93;;;12.77;;
980;SDS011;479;53.514;9.994;2024-02-28T13:03:06;16.73;;;10.23;;
980;SDS011;479;53.514;9.994;2024-02-28T13:05:33;20.03;;;12.10;;
980;SDS011;479;53.514;9.994;2024-02-28T13:08:00;15.13;;;11.07;;
980;SDS011;479;53.514;9.994;2024-02-28T13:10:28;15.60;;;10.83;;
980;SDS011;479;53.514;9.994;2024-02-28T13:12:55;17.33;;;11.17;;
980;SDS011;479;53.514;9.994;2024-02-28T13:15:22;20.40;;;10.73;;
980;SDS011;479;53.514;9.994;2024-02-28T13:17:49;18.17;;;11.33;;
980;SDS011;479;53.514;9.994;2024-02-28T13:20:17;19.33;;;11.93;;
980;SDS011;479;53.514;9.994;2024-02-28T13:22:44;18.60;;;11.47;;
980;SDS011;479;53.514;9.994;2024-02-28T13:25:11;18.00;;;10.80;;
980;SDS011;479;53.514;9.994;2024-02-28T13:27:41;16.67;;;9.33;;
980;SDS011;479;53.514;9.994;2024-02-28T13:30:08;17.10;;;10.70;;
980;SDS011;479;53.514;9.994;2024-02-28T13:32:46;16.83;;;9.83;;
980;SDS011;479;53.514;9.994;2024-02-28T13:35:13;15.70;;;10.20;;
980;SDS011;479;53.514;9.994;2024-02-28T13:37:41;12.70;;;8.70;;
980;SDS011;479;53.514;9.994;2024-02-28T13:40:08;13.87;;;8.90;;
980;SDS011;479;53.514;9.994;2024-02-28T13:42:38;23.30;;;15.07;;
980;SDS011;479;53.514;9.994;2024-02-28T13:45:16;14.17;;;8.40;;
980;SDS011;479;53.514;9.994;2024-02-28T13:47:44;14.90;;;9.20;;
980;SDS011;479;53.514;9.994;2024-02-28T13:50:11;13.60;;;9.73;;
980;SDS011;479;53.514;9.994;2024-02-28T13:52:39;13.40;;;9.53;;
980;SDS011;479;53.514;9.994;2024-02-28T13:55:08;13.73;;;9.07;;
980;SDS011;479;53.514;9.994;2024-02-28T13:57:35;11.23;;;7.97;;
980;SDS011;479;53.514;9.994;2024-02-28T14:00:07;17.57;;;10.00;;
980;SDS011;479;53.514;9.994;2024-02-28T14:05:47;17.27;;;9.67;;
980;SDS011;479;53.514;9.994;2024-02-28T14:08:24;14.00;;;10.67;;
980;SDS011;479;53.514;9.994;2024-02-28T14:11:02;12.00;;;8.83;;
980;SDS011;479;53.514;9.994;2024-02-28T14:13:39;11.43;;;7.90;;
980;SDS011;479;53.514;9.994;2024-02-28T14:16:09;14.47;;;9.20;;
980;SDS011;479;53.514;9.994;2024-02-28T14:18:36;11.60;;;7.67;;
980;SDS011;479;53.514;9.994;2024-02-28T14:21:04;10.33;;;8.20;;
980;SDS011;479;53.514;9.994;2024-02-28T14:24:06;11.90;;;8.60;;
980;SDS011;479;53.514;9.994;2024-02-28T14:26:34;10.53;;;6.63;;
980;SDS011;479;53.514;9.994;2024-02-28T14:29:07;11.57;;;7.83;;
980;SDS011;479;53.514;9.994;2024-02-28T14:31:34;13.27;;;9.23;;
980;SDS011;479;53.514;9.994;2024-02-28T14:34:08;12.70;;;8.83;;
980;SDS011;479;53.514;9.994;2024-02-28T14:36:36;9.57;;;6.70;;
980;SDS011;479;53.514;9.994;2024-02-28T14:39:03;11.37;;;7.37;;
980;SDS011;479;53.514;9.994;2024-02-28T14:41:40;6.13;;;5.53;;
980;SDS011;479;53.514;9.994;2024-02-28T14:44:09;7.00;;;5.27;;
980;SDS011;479;53.514;9.994;2024-02-28T14:46:36;8.70;;;6.30;;
980;SDS011;479;53.514;9.994;2024-02-28T14:49:02;8.10;;;5.50;;
980;SDS011;479;53.514;9.994;2024-02-28T14:51:30;11.37;;;6.10;;
980;SDS011;479;53.514;9.994;2024-02-28T14:53:59;13.00;;;7.97;;
980;SDS011;479;53.514;9.994;2024-02-28T14:56:26;9.20;;;7.10;;
980;SDS011;479;53.514;9.994;2024-02-28T14:58:54;11.53;;;8.40;;
980;SDS011;479;53.514;9.994;2024-02-28T15:01:21;10.07;;;7.07;;
980;SDS011;479;53.514;9.994;2024-02-28T15:03:48;10.93;;;7.33;;
980;SDS011;479;53.514;9.994;2024-02-28T15:06:16;9.37;;;6.33;;
980;SDS011;479;53.514;9.994;2024-02-28T15:08:45;10.47;;;6.77;;
980;SDS011;479;53.514;9.994;2024-02-28T15:11:13;10.83;;;7.40;;
980;SDS011;479;53.514;9.994;2024-02-28T15:13:41;10.53;;;6.50;;
980;SDS011;479;53.514;9.994;2024-02-28T15:16:12;9.70;;;7.20;;
980;SDS011;479;53.514;9.994;2024-02-28T15:18:42;11.70;;;7.07;;
980;SDS011;479;53.514;9.994;2024-02-28T15:21:09;11.07;;;7.23;;
980;SDS011;479;53.514;9.994;2024-02-28T15:23:36;9.93;;;6.73;;
980;SDS011;479;53.514;9.994;2024-02-28T15:26:03;11.70;;;8.30;;
980;SDS011;479;53.514;9.994;2024-02-28T15:28:31;9.17;;;7.13;;
980;SDS011;479;53.514;9.994;2024-02-28T15:30:58;14.73;;;8.10;;